createdAt,value
2022-09-16T00:00:08.005Z,0.00
2022-09-16T00:01:08.223Z,0.00
2022-09-16T00:02:07.994Z,0.00
2022-09-16T00:03:07.937Z,0.00
2022-09-16T00:04:07.932Z,0.00
2022-09-16T00:05:07.911Z,0.00
2022-09-16T00:06:07.914Z,0.00
2022-09-16T00:07:07.956Z,0.00
2022-09-16T00:08:07.881Z,0.00
2022-09-16T00:09:07.869Z,0.00
2022-09-16T00:10:07.856Z,0.00
2022-09-16T00:11:07.857Z,0.00
2022-09-16T00:12:07.834Z,0.00
2022-09-16T00:13:07.857Z,0.00
2022-09-16T00:14:07.828Z,0.00
2022-09-16T00:15:07.832Z,0.00
2022-09-16T00:16:07.881Z,0.00
2022-09-16T00:17:07.781Z,0.00
2022-09-16T00:18:07.783Z,0.00
2022-09-16T00:19:07.808Z,0.00
2022-09-16T00:20:07.756Z,0.00
2022-09-16T00:21:07.740Z,0.00
2022-09-16T00:22:07.729Z,0.00
2022-09-16T00:23:07.712Z,0.00
2022-09-16T00:24:07.706Z,0.00
2022-09-16T00:25:07.734Z,0.00
2022-09-16T00:26:07.682Z,0.00
2022-09-16T00:27:07.673Z,0.00
2022-09-16T00:28:07.672Z,0.00
2022-09-16T00:29:07.679Z,0.00
2022-09-16T00:30:07.637Z,0.00
2022-09-16T00:31:07.728Z,0.00
2022-09-16T00:32:07.617Z,0.00
2022-09-16T00:33:07.615Z,0.00
2022-09-16T00:34:07.594Z,0.00
2022-09-16T00:35:07.585Z,0.00
2022-09-16T00:36:07.577Z,0.00
2022-09-16T00:37:07.637Z,0.00
2022-09-16T00:38:07.565Z,0.00
2022-09-16T00:39:07.546Z,0.00
2022-09-16T00:40:07.633Z,0.00
2022-09-16T00:41:07.520Z,0.00
2022-09-16T00:42:07.509Z,0.00
2022-09-16T00:43:07.517Z,0.00
2022-09-16T00:44:07.485Z,0.00
2022-09-16T00:45:07.507Z,0.00
2022-09-16T00:46:07.469Z,0.00
2022-09-16T00:47:07.521Z,0.00
2022-09-16T00:48:07.449Z,0.00
2022-09-16T00:49:07.456Z,0.00
2022-09-16T00:50:07.423Z,0.00
2022-09-16T00:51:07.410Z,0.00
2022-09-16T00:52:07.396Z,0.00
2022-09-16T00:53:07.391Z,0.00
2022-09-16T00:54:07.388Z,0.00
2022-09-16T00:55:07.377Z,0.00
2022-09-16T00:56:07.358Z,0.00
2022-09-16T00:57:07.345Z,0.00
2022-09-16T00:58:07.332Z,0.00
2022-09-16T00:59:07.322Z,0.00
2022-09-16T01:00:07.327Z,0.00
2022-09-16T01:01:07.387Z,0.00
2022-09-16T01:02:07.368Z,0.00
2022-09-16T01:03:07.299Z,0.00
2022-09-16T01:04:07.270Z,0.00
2022-09-16T01:05:07.261Z,0.00
2022-09-16T01:06:07.245Z,0.00
2022-09-16T01:07:07.245Z,0.00
2022-09-16T01:08:07.225Z,0.00
2022-09-16T01:09:07.256Z,0.00
2022-09-16T01:10:07.214Z,0.00
2022-09-16T01:11:07.188Z,0.00
2022-09-16T01:12:07.223Z,0.00
2022-09-16T01:13:07.169Z,0.00
2022-09-16T01:14:07.171Z,0.00
2022-09-16T01:15:07.151Z,0.00
2022-09-16T01:16:07.253Z,0.00
2022-09-16T01:17:07.151Z,0.00
2022-09-16T01:18:07.140Z,0.00
2022-09-16T01:19:07.103Z,0.00
2022-09-16T01:20:07.105Z,0.00
2022-09-16T01:21:07.082Z,0.00
2022-09-16T01:22:07.067Z,0.00
2022-09-16T01:23:07.059Z,0.00
2022-09-16T01:24:07.057Z,0.00
2022-09-16T01:25:07.048Z,0.00
2022-09-16T01:26:07.045Z,0.00
2022-09-16T01:27:07.017Z,0.00
2022-09-16T01:28:07.007Z,0.00
2022-09-16T01:29:06.999Z,0.00
2022-09-16T01:30:07.009Z,0.00
2022-09-16T01:31:07.145Z,0.00
2022-09-16T01:32:06.960Z,0.00
2022-09-16T01:33:06.980Z,0.00
2022-09-16T01:34:06.944Z,0.00
2022-09-16T01:35:06.926Z,0.00
2022-09-16T01:36:06.930Z,0.00
2022-09-16T01:37:06.997Z,0.00
2022-09-16T01:38:06.897Z,0.00
2022-09-16T01:39:06.886Z,0.00
2022-09-16T01:40:06.910Z,0.00
2022-09-16T01:41:06.865Z,0.00
2022-09-16T01:42:06.853Z,0.00
2022-09-16T01:43:06.926Z,0.00
2022-09-16T01:44:06.828Z,0.00
2022-09-16T01:45:06.819Z,0.00
2022-09-16T01:46:06.848Z,0.00
2022-09-16T01:47:06.798Z,0.00
2022-09-16T01:48:06.789Z,0.00
2022-09-16T01:49:06.827Z,0.00
2022-09-16T01:50:06.773Z,0.00
2022-09-16T01:51:06.757Z,0.00
2022-09-16T01:52:06.767Z,0.00
2022-09-16T01:53:06.749Z,0.00
2022-09-16T01:54:06.720Z,0.00
2022-09-16T01:55:06.723Z,0.00
2022-09-16T01:56:06.712Z,0.00
2022-09-16T01:57:06.690Z,0.00
2022-09-16T01:58:06.691Z,0.00
2022-09-16T01:59:06.668Z,0.00
2022-09-16T02:00:06.657Z,0.00
2022-09-16T02:01:06.707Z,0.00
2022-09-16T02:02:06.780Z,0.00
2022-09-16T02:03:06.623Z,0.00
2022-09-16T02:04:06.644Z,0.00
2022-09-16T02:05:06.626Z,0.00
2022-09-16T02:06:06.597Z,0.00
2022-09-16T02:07:06.604Z,0.00
2022-09-16T02:08:06.570Z,0.00
2022-09-16T02:09:06.569Z,0.00
2022-09-16T02:10:06.548Z,0.00
2022-09-16T02:11:06.537Z,0.00
2022-09-16T02:12:06.526Z,0.00
2022-09-16T02:13:06.548Z,0.00
2022-09-16T02:14:06.509Z,0.00
2022-09-16T02:15:06.510Z,0.00
2022-09-16T02:16:06.582Z,0.00
2022-09-16T02:17:06.472Z,0.00
2022-09-16T02:18:06.460Z,0.00
2022-09-16T02:19:06.489Z,0.00
2022-09-16T02:20:06.444Z,0.00
2022-09-16T02:21:06.456Z,0.00
2022-09-16T02:22:06.430Z,0.00
2022-09-16T02:23:06.401Z,0.00
2022-09-16T02:24:06.393Z,0.00
2022-09-16T02:25:06.440Z,0.00
2022-09-16T02:26:06.371Z,0.00
2022-09-16T02:27:06.359Z,0.00
2022-09-16T02:28:06.358Z,0.00
2022-09-16T02:29:06.338Z,0.00
2022-09-16T02:30:06.328Z,0.00
2022-09-16T02:31:06.349Z,0.00
2022-09-16T02:32:06.304Z,0.00
2022-09-16T02:33:06.403Z,0.00
2022-09-16T02:34:06.312Z,0.00
2022-09-16T02:35:06.272Z,0.00
2022-09-16T02:36:06.263Z,0.00
2022-09-16T02:37:06.308Z,0.00
2022-09-16T02:38:06.234Z,0.00
2022-09-16T02:39:06.239Z,0.00
2022-09-16T02:40:06.411Z,0.00
2022-09-16T02:41:06.218Z,0.00
2022-09-16T02:42:06.194Z,0.00
2022-09-16T02:43:06.243Z,0.00
2022-09-16T02:44:06.180Z,0.00
2022-09-16T02:45:06.177Z,0.00
2022-09-16T02:46:06.282Z,0.00
2022-09-16T02:47:06.145Z,0.00
2022-09-16T02:48:06.129Z,0.00
2022-09-16T02:49:06.127Z,0.00
2022-09-16T02:50:06.110Z,0.00
2022-09-16T02:51:06.110Z,0.00
2022-09-16T02:52:06.115Z,0.00
2022-09-16T02:53:06.100Z,0.00
2022-09-16T02:54:06.060Z,0.00
2022-09-16T02:55:06.055Z,0.00
2022-09-16T02:56:06.048Z,0.00
2022-09-16T02:57:06.086Z,0.00
2022-09-16T02:58:06.018Z,0.00
2022-09-16T02:59:06.012Z,0.00
2022-09-16T03:00:05.997Z,0.00
2022-09-16T03:01:05.993Z,0.00
2022-09-16T03:02:06.046Z,0.00
2022-09-16T03:03:06.061Z,0.00
2022-09-16T03:04:05.955Z,0.00
2022-09-16T03:05:05.945Z,0.00
2022-09-16T03:06:05.934Z,0.00
2022-09-16T03:07:05.922Z,0.00
2022-09-16T03:08:05.925Z,0.00
2022-09-16T03:09:05.974Z,0.00
2022-09-16T03:10:05.892Z,0.00
2022-09-16T03:11:05.878Z,0.00
2022-09-16T03:12:05.867Z,0.00
2022-09-16T03:13:05.864Z,0.00
2022-09-16T03:14:05.859Z,0.00
2022-09-16T03:15:05.855Z,0.00
2022-09-16T03:16:05.884Z,0.00
2022-09-16T03:17:05.814Z,0.00
2022-09-16T03:18:05.805Z,0.00
2022-09-16T03:19:05.804Z,0.00
2022-09-16T03:20:05.783Z,0.00
2022-09-16T03:21:05.833Z,0.00
2022-09-16T03:22:05.757Z,0.00
2022-09-16T03:23:05.747Z,0.00
2022-09-16T03:24:05.738Z,0.00
2022-09-16T03:25:05.759Z,0.00
2022-09-16T03:26:05.720Z,0.00
2022-09-16T03:27:05.735Z,0.00
2022-09-16T03:28:05.693Z,0.00
2022-09-16T03:29:05.695Z,0.00
2022-09-16T03:30:05.684Z,0.00
2022-09-16T03:31:05.713Z,0.00
2022-09-16T03:32:05.647Z,0.00
2022-09-16T03:33:05.699Z,0.00
2022-09-16T03:34:05.626Z,0.00
2022-09-16T03:35:05.630Z,0.00
2022-09-16T03:36:05.609Z,0.00
2022-09-16T03:37:05.592Z,0.00
2022-09-16T03:38:05.582Z,0.00
2022-09-16T03:39:05.627Z,0.00
2022-09-16T03:40:05.661Z,0.00
2022-09-16T03:41:05.577Z,0.00
2022-09-16T03:42:05.538Z,0.00
2022-09-16T03:43:05.526Z,0.00
2022-09-16T03:44:05.519Z,0.00
2022-09-16T03:45:05.650Z,0.00
2022-09-16T03:46:05.551Z,0.00
2022-09-16T03:47:05.488Z,0.00
2022-09-16T03:48:05.473Z,0.00
2022-09-16T03:49:05.465Z,0.00
2022-09-16T03:50:05.451Z,0.00
2022-09-16T03:51:05.473Z,0.00
2022-09-16T03:52:05.428Z,0.00
2022-09-16T03:53:05.420Z,0.00
2022-09-16T03:54:05.410Z,0.00
2022-09-16T03:55:05.400Z,0.00
2022-09-16T03:56:05.386Z,0.00
2022-09-16T03:57:05.458Z,0.00
2022-09-16T03:58:05.361Z,0.00
2022-09-16T03:59:05.355Z,0.00
2022-09-16T04:00:05.345Z,0.00
2022-09-16T04:01:05.448Z,0.00
2022-09-16T04:02:05.320Z,0.00
2022-09-16T04:03:05.454Z,0.00
2022-09-16T04:04:05.297Z,0.00
2022-09-16T04:05:05.281Z,0.00
2022-09-16T04:06:05.271Z,0.00
2022-09-16T04:07:05.260Z,0.00
2022-09-16T04:08:05.264Z,0.00
2022-09-16T04:09:05.298Z,0.00
2022-09-16T04:10:05.241Z,0.00
2022-09-16T04:11:05.221Z,0.00
2022-09-16T04:12:05.210Z,0.00
2022-09-16T04:13:05.235Z,0.00
2022-09-16T04:14:05.184Z,0.00
2022-09-16T04:15:05.269Z,0.00
2022-09-16T04:16:05.297Z,0.00
2022-09-16T04:17:05.149Z,0.00
2022-09-16T04:18:05.198Z,0.00
2022-09-16T04:19:05.137Z,0.00
2022-09-16T04:20:05.118Z,0.00
2022-09-16T04:21:05.175Z,0.00
2022-09-16T04:22:05.096Z,0.00
2022-09-16T04:23:05.083Z,0.00
2022-09-16T04:24:07.499Z,0.00
2022-09-16T04:25:06.075Z,0.00
2022-09-16T04:26:05.050Z,0.00
2022-09-16T04:27:05.056Z,0.00
2022-09-16T04:28:05.031Z,0.00
2022-09-16T04:29:05.078Z,0.00
2022-09-16T04:30:05.007Z,0.00
2022-09-16T04:31:05.060Z,0.00
2022-09-16T04:32:04.982Z,0.00
2022-09-16T04:33:04.987Z,0.00
2022-09-16T04:34:04.969Z,0.00
2022-09-16T04:35:05.015Z,0.00
2022-09-16T04:36:04.943Z,0.00
2022-09-16T04:37:04.998Z,0.00
2022-09-16T04:38:04.916Z,0.00
2022-09-16T04:39:04.923Z,0.00
2022-09-16T04:40:05.374Z,0.00
2022-09-16T04:41:04.979Z,0.00
2022-09-16T04:42:04.985Z,0.00
2022-09-16T04:43:04.863Z,0.00
2022-09-16T04:44:04.853Z,4.00
2022-09-16T04:45:04.867Z,4.00
2022-09-16T04:46:04.915Z,4.00
2022-09-16T04:47:04.912Z,4.00
2022-09-16T04:48:04.821Z,4.00
2022-09-16T04:49:04.803Z,8.00
2022-09-16T04:50:04.789Z,12.00
2022-09-16T04:51:04.773Z,12.00
2022-09-16T04:52:04.762Z,16.00
2022-09-16T04:53:04.806Z,24.00
2022-09-16T04:54:04.747Z,32.00
2022-09-16T04:55:04.737Z,36.00
2022-09-16T04:56:04.718Z,44.00
2022-09-16T04:57:04.719Z,52.00
2022-09-16T04:58:04.700Z,60.00
2022-09-16T04:59:04.724Z,68.00
2022-09-16T05:00:04.674Z,76.00
2022-09-16T05:01:04.789Z,84.00
2022-09-16T05:02:04.668Z,96.00
2022-09-16T05:03:04.725Z,104.00
2022-09-16T05:04:04.629Z,112.00
2022-09-16T05:05:04.778Z,120.00
2022-09-16T05:06:04.613Z,124.00
2022-09-16T05:07:04.600Z,136.00
2022-09-16T05:08:04.605Z,144.00
2022-09-16T05:09:04.590Z,152.00
2022-09-16T05:10:04.567Z,160.00
2022-09-16T05:11:04.595Z,148.00
2022-09-16T05:12:04.542Z,168.00
2022-09-16T05:13:04.536Z,172.00
2022-09-16T05:14:04.523Z,172.00
2022-09-16T05:15:04.510Z,168.00
2022-09-16T05:16:04.577Z,172.00
2022-09-16T05:17:04.620Z,176.00
2022-09-16T05:18:04.541Z,196.00
2022-09-16T05:19:04.472Z,228.00
2022-09-16T05:20:04.454Z,260.00
2022-09-16T05:21:04.457Z,296.00
2022-09-16T05:22:04.443Z,340.00
2022-09-16T05:23:04.428Z,392.00
2022-09-16T05:24:04.489Z,436.00
2022-09-16T05:25:04.399Z,484.00
2022-09-16T05:26:04.388Z,544.00
2022-09-16T05:27:04.401Z,596.00
2022-09-16T05:28:04.377Z,608.00
2022-09-16T05:29:04.358Z,552.00
2022-09-16T05:30:04.365Z,500.00
2022-09-16T05:31:04.384Z,540.00
2022-09-16T05:32:04.322Z,616.00
2022-09-16T05:33:04.436Z,684.00
2022-09-16T05:34:04.406Z,756.00
2022-09-16T05:35:04.342Z,816.00
2022-09-16T05:36:04.301Z,880.00
2022-09-16T05:37:04.271Z,980.00
2022-09-16T05:38:04.257Z,1080.00
2022-09-16T05:39:22.214Z,1196.00
2022-09-16T05:40:05.275Z,1328.00
2022-09-16T05:41:04.221Z,1536.00
2022-09-16T05:42:04.281Z,1740.00
2022-09-16T05:43:04.203Z,1880.00
2022-09-16T05:44:04.213Z,2048.00
2022-09-16T05:45:04.184Z,2312.00
2022-09-16T05:46:04.358Z,2596.00
2022-09-16T05:47:04.160Z,2668.00
2022-09-16T05:48:04.212Z,2640.00
2022-09-16T05:49:04.268Z,2664.00
2022-09-16T05:50:04.123Z,2844.00
2022-09-16T05:51:04.183Z,3040.00
2022-09-16T05:52:04.215Z,3524.00
2022-09-16T05:53:04.091Z,3964.00
2022-09-16T05:54:04.139Z,4252.00
2022-09-16T05:55:04.069Z,4452.00
2022-09-16T05:56:04.060Z,4432.00
2022-09-16T05:57:07.017Z,4560.00
2022-09-16T05:58:04.046Z,4492.00
2022-09-16T05:59:04.025Z,4408.00
2022-09-16T06:00:04.228Z,4116.00
2022-09-16T06:01:04.085Z,3772.00
2022-09-16T06:02:04.163Z,3556.00
2022-09-16T06:03:03.996Z,3436.00
2022-09-16T06:04:03.972Z,3360.00
2022-09-16T06:05:04.081Z,3344.00
2022-09-16T06:06:03.956Z,3364.00
2022-09-16T06:07:03.952Z,3428.00
2022-09-16T06:08:04.016Z,3424.00
2022-09-16T06:09:03.925Z,3332.00
2022-09-16T06:10:03.905Z,3784.00
2022-09-16T06:11:03.893Z,4444.00
2022-09-16T06:12:03.881Z,3784.00
2022-09-16T06:13:03.877Z,3064.00
2022-09-16T06:14:03.973Z,2764.00
2022-09-16T06:15:03.848Z,2884.00
2022-09-16T06:16:03.863Z,3112.00
2022-09-16T06:17:03.827Z,3456.00
2022-09-16T06:18:06.446Z,4456.00
2022-09-16T06:19:03.814Z,6268.00
2022-09-16T06:20:03.814Z,6012.00
2022-09-16T06:21:03.906Z,5068.00
2022-09-16T06:22:03.768Z,4588.00
2022-09-16T06:23:03.755Z,6464.00
2022-09-16T06:24:03.756Z,8024.00
2022-09-16T06:25:03.946Z,8904.00
2022-09-16T06:26:03.777Z,9576.00
2022-09-16T06:27:03.711Z,9912.00
2022-09-16T06:28:03.699Z,9860.00
2022-09-16T06:29:03.701Z,10384.00
2022-09-16T06:30:03.674Z,12760.00
2022-09-16T06:31:03.717Z,15012.00
2022-09-16T06:32:03.705Z,16832.00
2022-09-16T06:33:03.638Z,20128.00
2022-09-16T06:34:03.631Z,33568.00
2022-09-16T06:35:03.630Z,47680.00
2022-09-16T06:36:03.608Z,35072.00
2022-09-16T06:37:03.724Z,25088.00
2022-09-16T06:38:03.640Z,22944.00
2022-09-16T06:39:03.578Z,25664.00
2022-09-16T06:40:03.618Z,28192.00
2022-09-16T06:41:03.561Z,46368.00
2022-09-16T06:42:03.547Z,25728.00
2022-09-16T06:43:03.530Z,29632.00
2022-09-16T06:44:03.535Z,34016.00
2022-09-16T06:45:03.510Z,35008.00
2022-09-16T06:46:03.527Z,39648.00
2022-09-16T06:47:03.592Z,32416.00
2022-09-16T06:48:03.479Z,23264.00
2022-09-16T06:49:06.175Z,21088.00
2022-09-16T06:50:03.512Z,19232.00
2022-09-16T06:51:03.443Z,11976.00
2022-09-16T06:52:03.434Z,12288.00
2022-09-16T06:53:03.558Z,13172.00
2022-09-16T06:54:03.418Z,12772.00
2022-09-16T06:55:03.404Z,13468.00
2022-09-16T06:56:03.468Z,11400.00
2022-09-16T06:57:03.380Z,11488.00
2022-09-16T06:58:03.367Z,11636.00
2022-09-16T06:59:03.355Z,13772.00
2022-09-16T07:00:03.348Z,14408.00
2022-09-16T07:01:03.427Z,20960.00
2022-09-16T07:02:03.435Z,27136.00
2022-09-16T07:03:03.315Z,32352.00
2022-09-16T07:04:03.307Z,22688.00
2022-09-16T07:05:03.299Z,20032.00
2022-09-16T07:06:03.283Z,15092.00
2022-09-16T07:07:09.737Z,23488.00
2022-09-16T07:08:04.334Z,22560.00
2022-09-16T07:09:03.373Z,16416.00
2022-09-16T07:10:03.234Z,25984.00
2022-09-16T07:11:03.235Z,23968.00
2022-09-16T07:12:03.216Z,23392.00
2022-09-16T07:13:03.202Z,26272.00
2022-09-16T07:14:03.208Z,26720.00
2022-09-16T07:15:03.182Z,28160.00
2022-09-16T07:16:12.920Z,25216.00
2022-09-16T07:17:04.241Z,27648.00
2022-09-16T07:18:03.153Z,22688.00
2022-09-16T07:19:03.276Z,28064.00
2022-09-16T07:20:03.140Z,24960.00
2022-09-16T07:21:03.127Z,20704.00
2022-09-16T07:22:03.108Z,19360.00
2022-09-16T07:23:03.164Z,18432.00
2022-09-16T07:24:03.080Z,17248.00
2022-09-16T07:25:03.205Z,20896.00
2022-09-16T07:26:03.119Z,19776.00
2022-09-16T07:27:03.049Z,11992.00
2022-09-16T07:28:03.038Z,11820.00
2022-09-16T07:29:03.031Z,16000.00
2022-09-16T07:30:08.205Z,24384.00
2022-09-16T07:31:04.356Z,43744.00
2022-09-16T07:32:03.012Z,86400.00
2022-09-16T07:33:02.988Z,45504.00
2022-09-16T07:34:04.715Z,28544.00
2022-09-16T07:35:02.960Z,29280.00
2022-09-16T07:36:02.966Z,30368.00
2022-09-16T07:37:03.000Z,25056.00
2022-09-16T07:38:02.934Z,31424.00
2022-09-16T07:39:02.924Z,33184.00
2022-09-16T07:40:02.999Z,38688.00
2022-09-16T07:41:03.022Z,48672.00
2022-09-16T07:42:06.079Z,38272.00
2022-09-16T07:43:02.941Z,44480.00
2022-09-16T07:44:02.868Z,46816.00
2022-09-16T07:45:02.852Z,35072.00
2022-09-16T07:46:03.158Z,49216.00
2022-09-16T07:47:02.829Z,52672.00
2022-09-16T07:48:02.821Z,36032.00
2022-09-16T07:49:02.874Z,59232.00
2022-09-16T07:50:02.806Z,58240.00
2022-09-16T07:51:02.789Z,122112.00
2022-09-16T07:52:02.774Z,72832.00
2022-09-16T07:53:02.803Z,99616.00
2022-09-16T07:54:02.752Z,89440.00
2022-09-16T07:55:02.829Z,95872.00
2022-09-16T07:56:02.735Z,73792.00
2022-09-16T07:57:02.866Z,49152.00
2022-09-16T07:58:02.710Z,48480.00
2022-09-16T07:59:02.699Z,42304.00
2022-09-16T08:00:02.688Z,25824.00
2022-09-16T08:01:04.927Z,22784.00
2022-09-16T08:02:02.871Z,25376.00
2022-09-16T08:03:02.770Z,25600.00
2022-09-16T08:04:02.642Z,25024.00
2022-09-16T08:05:02.631Z,24320.00
2022-09-16T08:06:02.833Z,37888.00
2022-09-16T08:07:02.673Z,27776.00
2022-09-16T08:08:02.599Z,37696.00
2022-09-16T08:09:10.558Z,29856.00
2022-09-16T08:10:03.577Z,43264.00
2022-09-16T08:11:02.572Z,55424.00
2022-09-16T08:12:02.557Z,137824.00
2022-09-16T08:13:02.692Z,132032.00
2022-09-16T08:14:02.535Z,127456.00
2022-09-16T08:15:02.543Z,71008.00
2022-09-16T08:16:02.516Z,50208.00
2022-09-16T08:17:02.501Z,68256.00
2022-09-16T08:18:02.502Z,51328.00
2022-09-16T08:19:02.486Z,50752.00
2022-09-16T08:20:02.466Z,43520.00
2022-09-16T08:21:02.452Z,35456.00
2022-09-16T08:22:02.446Z,31872.00
2022-09-16T08:23:02.430Z,31264.00
2022-09-16T08:24:02.439Z,30336.00
2022-09-16T08:25:02.476Z,46368.00
2022-09-16T08:26:02.416Z,53344.00
2022-09-16T08:27:02.385Z,60960.00
2022-09-16T08:28:02.378Z,68384.00
2022-09-16T08:29:08.995Z,94880.00
2022-09-16T08:30:03.372Z,131680.00
2022-09-16T08:31:02.347Z,120256.00
2022-09-16T08:32:02.429Z,86752.00
2022-09-16T08:33:02.319Z,93632.00
2022-09-16T08:34:02.315Z,131808.00
2022-09-16T08:35:02.298Z,139392.00
2022-09-16T08:36:02.284Z,92064.00
2022-09-16T08:37:02.318Z,61408.00
2022-09-16T08:38:02.263Z,127808.00
2022-09-16T08:39:02.270Z,76928.00
2022-09-16T08:40:02.369Z,105056.00
2022-09-16T08:41:02.231Z,35616.00
2022-09-16T08:42:02.220Z,46208.00
2022-09-16T08:43:02.292Z,66080.00
2022-09-16T08:44:02.203Z,49984.00
2022-09-16T08:45:02.310Z,67040.00
2022-09-16T08:46:02.230Z,90848.00
2022-09-16T08:47:02.175Z,109536.00
2022-09-16T08:48:02.154Z,61568.00
2022-09-16T08:49:02.209Z,98592.00
2022-09-16T08:50:02.141Z,118528.00
2022-09-16T08:51:02.123Z,89088.00
2022-09-16T08:52:02.155Z,51680.00
2022-09-16T08:53:02.126Z,102752.00
2022-09-16T08:54:02.106Z,141280.00
2022-09-16T08:55:02.191Z,83008.00
2022-09-16T08:56:02.156Z,36448.00
2022-09-16T08:57:02.072Z,32736.00
2022-09-16T08:58:02.119Z,30336.00
2022-09-16T08:59:02.040Z,26432.00
2022-09-16T09:00:02.229Z,24864.00
2022-09-16T09:01:02.279Z,23360.00
2022-09-16T09:02:08.186Z,22144.00
2022-09-16T09:03:03.092Z,21824.00
2022-09-16T09:04:02.012Z,21280.00
2022-09-16T09:05:01.988Z,21920.00
2022-09-16T09:06:02.007Z,22528.00
2022-09-16T09:07:01.963Z,22720.00
2022-09-16T09:08:01.964Z,23840.00
2022-09-16T09:09:01.926Z,24416.00
2022-09-16T09:10:02.345Z,26784.00
2022-09-16T09:11:01.904Z,43456.00
2022-09-16T09:12:01.964Z,32352.00
2022-09-16T09:13:02.563Z,32672.00
2022-09-16T09:14:02.028Z,29248.00
2022-09-16T09:15:01.906Z,75520.00
2022-09-16T09:16:01.893Z,43072.00
2022-09-16T09:17:01.987Z,28800.00
2022-09-16T09:18:01.862Z,34496.00
2022-09-16T09:19:01.813Z,23328.00
2022-09-16T09:20:01.835Z,21696.00
2022-09-16T09:21:01.814Z,20096.00
2022-09-16T09:22:01.799Z,18816.00
2022-09-16T09:23:01.773Z,17280.00
2022-09-16T09:24:01.822Z,15376.00
2022-09-16T09:25:01.747Z,14404.00
2022-09-16T09:26:01.750Z,14216.00
2022-09-16T09:27:01.760Z,15016.00
2022-09-16T09:28:01.745Z,17184.00
2022-09-16T09:29:01.700Z,21344.00
2022-09-16T09:30:01.743Z,25792.00
2022-09-16T09:31:01.710Z,39168.00
2022-09-16T09:32:01.743Z,61280.00
2022-09-16T09:33:01.859Z,28640.00
2022-09-16T09:34:01.690Z,34176.00
2022-09-16T09:35:01.637Z,30560.00
2022-09-16T09:36:01.698Z,29696.00
2022-09-16T09:37:01.634Z,30144.00
2022-09-16T09:38:01.606Z,33664.00
2022-09-16T09:39:01.621Z,81984.00
2022-09-16T09:40:01.675Z,39840.00
2022-09-16T09:41:01.591Z,40352.00
2022-09-16T09:42:01.570Z,59936.00
2022-09-16T09:43:01.600Z,57504.00
2022-09-16T09:44:01.589Z,60288.00
2022-09-16T09:45:02.490Z,67456.00
2022-09-16T09:46:01.616Z,52704.00
2022-09-16T09:47:01.540Z,33312.00
2022-09-16T09:48:01.596Z,35040.00
2022-09-16T09:49:01.656Z,130400.00
2022-09-16T09:50:01.471Z,101952.00
2022-09-16T09:51:01.530Z,38624.00
2022-09-16T09:52:01.484Z,38496.00
2022-09-16T09:53:01.471Z,30304.00
2022-09-16T09:54:01.489Z,27072.00
2022-09-16T09:55:01.473Z,25728.00
2022-09-16T09:56:01.438Z,25088.00
2022-09-16T09:57:01.395Z,24864.00
2022-09-16T09:58:01.399Z,24640.00
2022-09-16T09:59:01.403Z,24256.00
2022-09-16T10:00:01.452Z,23456.00
2022-09-16T10:01:01.435Z,22464.00
2022-09-16T10:02:01.469Z,21888.00
2022-09-16T10:03:01.359Z,20928.00
2022-09-16T10:04:01.314Z,19488.00
2022-09-16T10:05:01.460Z,19104.00
2022-09-16T10:06:01.300Z,18240.00
2022-09-16T10:07:04.337Z,17600.00
2022-09-16T10:08:01.276Z,17632.00
2022-09-16T10:09:01.260Z,17568.00
2022-09-16T10:10:01.360Z,17856.00
2022-09-16T10:11:01.239Z,18048.00
2022-09-16T10:12:01.282Z,18688.00
2022-09-16T10:13:01.230Z,19776.00
2022-09-16T10:14:01.235Z,20800.00
2022-09-16T10:15:01.191Z,21632.00
2022-09-16T10:16:01.217Z,23552.00
2022-09-16T10:17:01.170Z,30400.00
2022-09-16T10:18:01.224Z,44864.00
2022-09-16T10:19:01.156Z,35648.00
2022-09-16T10:20:01.138Z,48064.00
2022-09-16T10:21:01.257Z,33440.00
2022-09-16T10:22:01.127Z,141152.00
2022-09-16T10:23:01.119Z,44960.00
2022-09-16T10:24:01.090Z,39936.00
2022-09-16T10:25:01.094Z,41920.00
2022-09-16T10:26:01.079Z,37984.00
2022-09-16T10:27:01.055Z,41856.00
2022-09-16T10:28:01.052Z,48672.00
2022-09-16T10:29:01.070Z,80384.00
2022-09-16T10:30:01.032Z,60928.00
2022-09-16T10:31:01.257Z,139360.00
2022-09-16T10:32:01.142Z,95168.00
2022-09-16T10:33:00.993Z,128928.00
2022-09-16T10:34:00.989Z,93632.00
2022-09-16T10:35:00.991Z,109856.00
2022-09-16T10:36:00.964Z,93280.00
2022-09-16T10:37:01.078Z,113600.00
2022-09-16T10:38:00.950Z,60864.00
2022-09-16T10:39:04.467Z,65504.00
2022-09-16T10:40:01.029Z,59168.00
2022-09-16T10:41:00.965Z,54688.00
2022-09-16T10:42:00.893Z,46400.00
2022-09-16T10:43:00.878Z,95040.00
2022-09-16T10:44:00.872Z,139296.00
2022-09-16T10:45:00.859Z,139296.00
2022-09-16T10:46:00.931Z,53152.00
2022-09-16T10:47:00.935Z,34752.00
2022-09-16T10:48:03.468Z,31680.00
2022-09-16T10:49:01.811Z,30400.00
2022-09-16T10:50:00.802Z,30208.00
2022-09-16T10:51:00.908Z,41536.00
2022-09-16T10:52:00.782Z,136256.00
2022-09-16T10:53:00.918Z,48928.00
2022-09-16T10:54:00.762Z,110880.00
2022-09-16T10:55:00.753Z,134080.00
2022-09-16T10:56:00.739Z,84608.00
2022-09-16T10:57:00.747Z,116032.00
2022-09-16T10:58:00.717Z,80448.00
2022-09-16T10:59:00.713Z,41600.00
2022-09-16T11:00:00.698Z,42752.00
2022-09-16T11:01:00.764Z,39392.00
2022-09-16T11:02:01.023Z,33120.00
2022-09-16T11:03:00.664Z,31744.00
2022-09-16T11:04:00.652Z,33888.00
2022-09-16T11:05:00.705Z,33504.00
2022-09-16T11:06:00.639Z,34240.00
2022-09-16T11:07:00.618Z,36672.00
2022-09-16T11:08:00.606Z,68544.00
2022-09-16T11:09:00.731Z,44960.00
2022-09-16T11:10:00.587Z,40544.00
2022-09-16T11:11:00.578Z,38944.00
2022-09-16T11:12:00.580Z,38624.00
2022-09-16T11:13:00.696Z,41184.00
2022-09-16T11:14:00.541Z,57152.00
2022-09-16T11:15:00.532Z,55424.00
2022-09-16T11:16:00.567Z,46176.00
2022-09-16T11:17:00.543Z,43360.00
2022-09-16T11:18:00.500Z,37408.00
2022-09-16T11:19:00.502Z,37696.00
2022-09-16T11:20:00.478Z,37504.00
2022-09-16T11:21:00.479Z,45760.00
2022-09-16T11:22:00.453Z,130496.00
2022-09-16T11:23:00.511Z,132960.00
2022-09-16T11:24:00.448Z,141152.00
2022-09-16T11:25:00.560Z,46560.00
2022-09-16T11:26:00.420Z,37408.00
2022-09-16T11:27:00.407Z,31872.00
2022-09-16T11:28:00.388Z,27104.00
2022-09-16T11:29:00.379Z,22976.00
2022-09-16T11:30:00.393Z,19936.00
2022-09-16T11:31:00.442Z,18624.00
2022-09-16T11:32:00.361Z,17824.00
2022-09-16T11:33:02.089Z,17088.00
2022-09-16T11:34:01.394Z,16704.00
2022-09-16T11:35:00.375Z,15548.00
2022-09-16T11:36:00.301Z,14400.00
2022-09-16T11:37:00.289Z,13724.00
2022-09-16T11:38:00.280Z,13224.00
2022-09-16T11:39:00.282Z,12796.00
2022-09-16T11:40:00.409Z,12432.00
2022-09-16T11:41:00.402Z,12368.00
2022-09-16T11:42:00.248Z,12296.00
2022-09-16T11:43:00.233Z,12272.00
2022-09-16T11:44:00.226Z,12400.00
2022-09-16T11:45:00.208Z,12504.00
2022-09-16T11:46:00.189Z,12932.00
2022-09-16T11:47:00.242Z,13360.00
2022-09-16T11:48:00.179Z,14164.00
2022-09-16T11:49:00.159Z,14520.00
2022-09-16T11:50:00.175Z,14544.00
2022-09-16T11:51:00.136Z,14672.00
2022-09-16T11:52:00.132Z,15332.00
2022-09-16T11:53:04.819Z,16376.00
2022-09-16T11:54:01.802Z,17088.00
2022-09-16T11:55:00.098Z,17440.00
2022-09-16T11:56:00.158Z,17440.00
2022-09-16T11:57:00.207Z,16520.00
2022-09-16T11:58:00.075Z,15668.00
2022-09-16T11:59:00.077Z,15116.00
2022-09-16T12:00:00.060Z,14684.00
2022-09-16T12:01:00.022Z,14380.00
2022-09-16T12:02:00.138Z,14040.00
2022-09-16T12:03:00.037Z,13736.00
2022-09-16T12:04:00.000Z,14028.00
2022-09-16T12:04:59.980Z,15348.00
2022-09-16T12:05:59.990Z,18528.00
2022-09-16T12:07:00.025Z,23776.00
2022-09-16T12:07:59.944Z,29472.00
2022-09-16T12:08:59.933Z,26848.00
2022-09-16T12:09:59.956Z,21952.00
2022-09-16T12:11:00.024Z,17280.00
2022-09-16T12:11:59.903Z,14524.00
2022-09-16T12:13:00.031Z,12880.00
2022-09-16T12:14:05.669Z,11740.00
2022-09-16T12:15:04.833Z,11204.00
2022-09-16T12:15:59.871Z,10568.00
2022-09-16T12:16:59.864Z,10884.00
2022-09-16T12:17:59.840Z,10208.00
2022-09-16T12:18:59.910Z,11436.00
2022-09-16T12:19:59.814Z,11852.00
2022-09-16T12:20:59.803Z,11952.00
2022-09-16T12:21:59.802Z,12108.00